createdAt,value
2018-04-08T00:00:40.756Z,14.73
2018-04-08T00:05:42.073Z,16.20
2018-04-08T00:10:43.364Z,17.47
2018-04-08T00:15:44.650Z,16.33
2018-04-08T00:20:45.955Z,16.03
2018-04-08T00:25:47.323Z,13.53
2018-04-08T00:30:48.664Z,19.50
2018-04-08T00:35:49.983Z,15.43
2018-04-08T00:40:51.305Z,15.30
2018-04-08T00:45:52.624Z,18.90
2018-04-08T00:50:53.984Z,19.17
2018-04-08T00:55:55.310Z,16.50
2018-04-08T01:00:56.653Z,21.73
2018-04-08T01:05:57.992Z,16.07
2018-04-08T01:10:59.309Z,18.30
2018-04-08T01:16:00.644Z,15.57
2018-04-08T01:21:02.721Z,14.87
2018-04-08T01:26:04.060Z,15.63
2018-04-08T01:31:05.380Z,23.23
2018-04-08T01:36:06.708Z,25.33
2018-04-08T01:41:08.011Z,14.07
2018-04-08T01:46:17.093Z,19.20
2018-04-08T01:51:19.134Z,20.87
2018-04-08T01:56:20.467Z,33.20
2018-04-08T02:01:21.869Z,15.80
2018-04-08T02:06:23.947Z,18.17
2018-04-08T02:11:25.295Z,21.43
2018-04-08T02:16:26.604Z,16.63
2018-04-08T02:21:27.911Z,20.43
2018-04-08T02:26:29.219Z,17.27
2018-04-08T02:31:30.567Z,18.80
2018-04-08T02:36:31.919Z,20.93
2018-04-08T02:41:33.968Z,16.10
2018-04-08T02:51:42.972Z,22.60
2018-04-08T02:56:44.283Z,16.43
2018-04-08T03:01:45.627Z,20.40
2018-04-08T03:06:47.679Z,20.90
2018-04-08T03:11:48.991Z,18.30
2018-04-08T03:16:50.335Z,18.13
2018-04-08T03:21:51.690Z,20.07
2018-04-08T03:26:53.004Z,15.40
2018-04-08T03:31:54.346Z,16.30
2018-04-08T03:36:55.721Z,18.43
2018-04-08T03:41:57.032Z,17.17
2018-04-08T03:46:58.542Z,15.73
2018-04-08T03:51:59.863Z,17.30
2018-04-08T03:57:01.178Z,20.50
2018-04-08T04:02:02.543Z,18.30
2018-04-08T04:07:03.848Z,19.73
2018-04-08T04:12:05.182Z,17.03
2018-04-08T04:17:06.503Z,14.03
2018-04-08T04:22:26.327Z,15.13
2018-04-08T04:27:27.647Z,19.83
2018-04-08T04:32:28.999Z,22.03
2018-04-08T04:37:31.103Z,25.80
2018-04-08T04:42:33.141Z,17.60
2018-04-08T04:47:34.743Z,18.83
2018-04-08T04:52:36.079Z,18.53
2018-04-08T04:57:37.401Z,13.97
2018-04-08T05:02:39.495Z,22.50
2018-04-08T05:07:41.532Z,17.67
2018-04-08T05:12:43.036Z,17.50
2018-04-08T05:17:44.404Z,17.90
2018-04-08T05:22:45.836Z,19.33
2018-04-08T05:27:47.174Z,18.93
2018-04-08T05:32:48.548Z,20.07
2018-04-08T05:37:49.867Z,19.10
2018-04-08T05:42:51.230Z,19.73
2018-04-08T05:47:53.279Z,22.30
2018-04-08T05:52:54.619Z,21.50
2018-04-08T05:57:56.702Z,20.33
2018-04-08T06:02:58.012Z,20.00
2018-04-08T06:08:00.075Z,17.23
2018-04-08T06:13:01.383Z,14.40
2018-04-08T06:18:02.755Z,17.60
2018-04-08T06:23:04.115Z,18.13
2018-04-08T06:28:05.443Z,20.70
2018-04-08T06:33:06.748Z,20.83
2018-04-08T06:38:08.091Z,19.23
2018-04-08T06:43:09.515Z,22.40
2018-04-08T06:48:10.854Z,17.93
2018-04-08T06:53:12.956Z,15.20
2018-04-08T06:58:15.011Z,142.60
2018-04-08T07:03:16.339Z,153.03
2018-04-08T07:08:17.640Z,17.40
2018-04-08T07:13:19.675Z,13.23
2018-04-08T07:18:21.076Z,14.57
2018-04-08T07:23:22.445Z,16.83
2018-04-08T07:28:23.748Z,14.63
2018-04-08T07:33:25.063Z,15.27
2018-04-08T07:38:26.356Z,15.13
2018-04-08T07:43:27.685Z,14.60
2018-04-08T07:48:29.753Z,13.67
2018-04-08T07:53:31.086Z,14.23
2018-04-08T07:58:32.383Z,16.27
2018-04-08T08:03:33.699Z,14.20
2018-04-08T08:08:35.004Z,17.53
2018-04-08T08:13:36.319Z,11.80
2018-04-08T08:18:38.382Z,13.13
2018-04-08T08:23:39.705Z,14.60
2018-04-08T08:28:41.014Z,18.83
2018-04-08T08:33:43.069Z,14.07
2018-04-08T08:38:44.363Z,14.53
2018-04-08T08:43:45.660Z,16.70
2018-04-08T08:48:46.979Z,10.80
2018-04-08T08:53:49.007Z,9.57
2018-04-08T08:58:50.332Z,20.83
2018-04-08T09:03:51.655Z,16.93
2018-04-08T09:08:52.998Z,13.00
2018-04-08T09:13:54.296Z,13.33
2018-04-08T09:19:07.433Z,13.63
2018-04-08T09:24:12.664Z,12.30
2018-04-08T09:29:13.953Z,15.83
2018-04-08T09:34:15.263Z,18.43
2018-04-08T09:39:17.322Z,14.07
2018-04-08T09:44:18.647Z,14.00
2018-04-08T09:49:19.951Z,15.33
2018-04-08T09:54:22.003Z,15.20
2018-04-08T09:59:23.409Z,16.67
2018-04-08T10:04:24.726Z,19.87
2018-04-08T10:09:26.147Z,12.50
2018-04-08T10:14:27.459Z,12.93
2018-04-08T10:19:28.792Z,14.60
2018-04-08T10:24:30.124Z,11.33
2018-04-08T10:29:31.443Z,15.10
2018-04-08T10:34:32.767Z,14.17
2018-04-08T10:39:34.094Z,13.53
2018-04-08T10:44:35.436Z,11.40
2018-04-08T10:49:36.759Z,17.83
2018-04-08T10:54:38.820Z,13.93
2018-04-08T10:59:40.158Z,10.47
2018-04-08T11:04:41.467Z,13.03
2018-04-08T11:09:42.800Z,14.53
2018-04-08T11:14:44.124Z,25.20
2018-04-08T11:19:45.431Z,15.80
2018-04-08T11:24:46.852Z,19.73
2018-04-08T11:29:48.174Z,17.37
2018-04-08T11:34:50.243Z,15.53
2018-04-08T11:39:51.591Z,20.93
2018-04-08T11:44:52.905Z,14.33
2018-04-08T11:49:54.231Z,18.93
2018-04-08T11:54:55.535Z,14.73
2018-04-08T11:59:57.701Z,14.13
2018-04-08T12:04:59.018Z,18.77
2018-04-08T12:10:00.339Z,15.30
2018-04-08T12:15:01.655Z,12.80
2018-04-08T12:20:03.004Z,15.63
2018-04-08T12:25:05.115Z,24.93
2018-04-08T12:30:07.418Z,20.43
2018-04-08T12:35:09.692Z,14.30
2018-04-08T12:40:11.244Z,26.77
2018-04-08T12:45:13.503Z,23.73
2018-04-08T12:50:14.839Z,24.63
2018-04-08T12:55:16.899Z,22.97
2018-04-08T13:00:18.369Z,15.60
2018-04-08T13:05:19.696Z,19.63
2018-04-08T13:10:21.030Z,17.10
2018-04-08T13:15:22.411Z,19.63
2018-04-08T13:20:24.496Z,24.03
2018-04-08T13:25:25.892Z,22.00
2018-04-08T13:30:27.961Z,27.97
2018-04-08T13:35:29.288Z,29.90
2018-04-08T13:40:31.366Z,21.97
2018-04-08T13:45:32.688Z,43.20
2018-04-08T13:50:34.749Z,20.90
2018-04-08T13:55:36.087Z,27.40
2018-04-08T14:00:38.219Z,18.17
2018-04-08T14:05:39.554Z,29.07
2018-04-08T14:10:40.889Z,26.90
2018-04-08T14:15:42.187Z,27.73
2018-04-08T14:20:43.512Z,25.80
2018-04-08T14:25:44.823Z,22.27
2018-04-08T14:30:46.186Z,32.33
2018-04-08T14:35:47.515Z,19.73
2018-04-08T14:40:49.587Z,23.00
2018-04-08T14:45:50.921Z,15.93
2018-04-08T14:50:53.011Z,33.10
2018-04-08T14:55:54.347Z,37.70
2018-04-08T15:00:55.718Z,37.60
2018-04-08T15:05:57.054Z,42.20
2018-04-08T15:10:58.380Z,29.47
2018-04-08T15:16:00.448Z,24.00
2018-04-08T15:21:01.777Z,20.07
2018-04-08T15:26:03.875Z,19.60
2018-04-08T15:31:05.202Z,24.30
2018-04-08T15:36:06.534Z,25.17
2018-04-08T15:41:07.926Z,32.40
2018-04-08T15:46:09.268Z,26.47
2018-04-08T15:51:10.632Z,22.40
2018-04-08T15:56:11.964Z,28.83
2018-04-08T16:01:13.291Z,26.43
2018-04-08T16:06:14.590Z,29.43
2018-04-08T16:11:16.315Z,29.03
2018-04-08T16:16:18.507Z,24.20
2018-04-08T16:21:20.571Z,26.27
2018-04-08T16:26:21.865Z,32.10
2018-04-08T16:31:23.180Z,30.10
2018-04-08T16:36:24.499Z,22.50
2018-04-08T16:41:26.552Z,21.40
2018-04-08T16:46:27.911Z,23.20
2018-04-08T16:51:29.937Z,23.93
2018-04-08T16:56:31.300Z,26.43
2018-04-08T17:01:32.628Z,26.07
2018-04-08T17:06:33.943Z,25.83
2018-04-08T17:11:36.405Z,28.13
2018-04-08T17:16:37.786Z,27.30
2018-04-08T17:21:39.110Z,32.03
2018-04-08T17:26:40.432Z,33.00
2018-04-08T17:31:41.751Z,34.30
2018-04-08T17:36:43.047Z,36.63
2018-04-08T17:41:44.343Z,49.50
2018-04-08T17:46:46.513Z,44.50
2018-04-08T17:51:47.843Z,37.40
2018-04-08T17:56:49.172Z,50.13
2018-04-08T18:01:50.632Z,43.23
2018-04-08T18:06:51.923Z,43.97
2018-04-08T18:11:53.368Z,46.53
2018-04-08T18:16:54.703Z,39.53
2018-04-08T18:21:56.004Z,45.00
2018-04-08T18:26:57.390Z,53.67
2018-04-08T18:31:58.724Z,46.73
2018-04-08T18:37:00.015Z,44.80
2018-04-08T18:42:02.072Z,48.63
2018-04-08T18:47:03.838Z,45.40
2018-04-08T18:52:06.631Z,40.60
2018-04-08T18:57:07.982Z,43.20
2018-04-08T19:02:09.435Z,48.63
2018-04-08T19:07:11.630Z,41.77
2018-04-08T19:12:13.047Z,46.40
2018-04-08T19:17:21.246Z,45.27
2018-04-08T19:22:22.611Z,41.37
2018-04-08T19:27:29.883Z,39.83
2018-04-08T19:32:31.302Z,40.90
2018-04-08T19:37:33.355Z,46.43
2018-04-08T19:42:34.679Z,41.53
2018-04-08T19:47:35.990Z,40.30
2018-04-08T19:52:38.036Z,37.27
2018-04-08T19:57:39.322Z,40.00
2018-04-08T20:02:40.627Z,36.47
2018-04-08T20:07:41.919Z,40.33
2018-04-08T20:12:43.224Z,45.60
2018-04-08T20:17:44.519Z,38.23
2018-04-08T20:22:45.831Z,40.83
2018-04-08T20:27:47.119Z,38.20
2018-04-08T20:32:48.430Z,38.73
2018-04-08T20:37:49.731Z,40.93
2018-04-08T20:42:51.071Z,35.70
2018-04-08T20:47:53.135Z,39.20
2018-04-08T20:52:54.456Z,40.03
2018-04-08T20:57:55.763Z,41.60
2018-04-08T21:02:57.810Z,39.27
2018-04-08T21:07:59.135Z,44.33
2018-04-08T21:13:00.479Z,41.70
2018-04-08T21:18:02.536Z,39.63
2018-04-08T21:23:04.610Z,44.73
2018-04-08T21:28:05.915Z,44.80
2018-04-08T21:33:07.261Z,39.10
2018-04-08T21:38:08.583Z,42.33
2018-04-08T21:43:09.919Z,42.63
2018-04-08T21:48:11.984Z,38.57
2018-04-08T21:53:13.332Z,38.80
2018-04-08T21:58:14.662Z,39.60
2018-04-08T22:03:15.974Z,41.43
2018-04-08T22:08:17.334Z,42.97
2018-04-08T22:13:18.657Z,39.93
2018-04-08T22:18:19.983Z,45.43
2018-04-08T22:23:21.317Z,44.03
2018-04-08T22:28:22.629Z,38.07
2018-04-08T22:33:23.951Z,43.20
2018-04-08T22:38:25.252Z,41.17
2018-04-08T22:43:26.567Z,49.33
2018-04-08T22:48:27.863Z,48.83
2018-04-08T22:53:29.215Z,46.90
2018-04-08T22:58:30.586Z,43.40
2018-04-08T23:03:32.635Z,48.20
2018-04-08T23:08:33.944Z,41.10
2018-04-08T23:13:35.320Z,46.30
2018-04-08T23:18:36.623Z,42.67
2018-04-08T23:23:37.964Z,39.13
2018-04-08T23:28:39.267Z,44.07
2018-04-08T23:33:40.568Z,43.93
2018-04-08T23:38:41.878Z,43.60
2018-04-08T23:43:43.203Z,39.70
2018-04-08T23:48:45.255Z,40.67
2018-04-08T23:53:46.568Z,43.93
2018-04-08T23:58:47.915Z,42.87
